Time;durP1;ratioP1;P1;durP2;ratioP2;P2;SDS_P1;SDS_P2;PMS_P1;PMS_P2;Temp;Humidity;BMP_temperature;BMP_pressure;BME280_temperature;BME280_humidity;BME280_pressure;Samples;Min_cycle;Max_cycle;Signal;HPM_P1;HPM_P2
2023/12/06 00:17:59;;;;;;;34.88;14.18;;;;;;;;;;4984347;28;20116;-65
2023/12/06 00:20:33;;;;;;;28.17;12.63;;;;;;;;;;4976167;28;20218;-65
2023/12/06 00:23:20;;;;;;;34.85;13.00;;;;;;;;;;4990027;28;20050;-61
2023/12/06 00:26:14;;;;;;;33.30;14.40;;;;;;;;;;4992296;28;20445;-51
2023/12/06 00:29:02;;;;;;;38.55;13.40;;;;;;;;;;4991014;28;20046;-49
2023/12/06 00:31:55;;;;;;;29.02;13.18;;;;;;;;;;4989431;28;20069;-51
2023/12/06 00:34:42;;;;;;;31.30;13.68;;;;;;;;;;4995715;28;20995;-47
2023/12/06 00:37:36;;;;;;;33.38;13.52;;;;;;;;;;4996748;28;20057;-52
2023/12/06 00:40:23;;;;;;;32.83;14.35;;;;;;;;;;4996816;28;20575;-48
2023/12/06 00:43:17;;;;;;;37.83;14.13;;;;;;;;;;4993701;28;20065;-61
2023/12/06 00:46:04;;;;;;;31.17;13.45;;;;;;;;;;4993945;28;20144;-46
2023/12/06 00:48:59;;;;;;;31.48;13.52;;;;;;;;;;4996054;28;20100;-47
2023/12/06 00:51:46;;;;;;;31.85;13.52;;;;;;;;;;4993344;28;20050;-51
2023/12/06 00:54:39;;;;;;;37.63;14.35;;;;;;;;;;4994936;28;20048;-48
2023/12/06 00:57:26;;;;;;;32.75;14.23;;;;;;;;;;4995228;28;20909;-47
2023/12/06 01:00:20;;;;;;;33.40;13.05;;;;;;;;;;4997363;28;20056;-59
2023/12/06 01:03:14;;;;;;;33.70;14.10;;;;;;;;;;4996851;28;20058;-48
2023/12/06 01:06:01;;;;;;;30.48;13.05;;;;;;;;;;4994179;28;20136;-46
2023/12/06 01:08:55;;;;;;;31.48;13.25;;;;;;;;;;4998613;28;20057;-49
2023/12/06 01:11:42;;;;;;;30.80;12.70;;;;;;;;;;4996519;28;20054;-47
2023/12/06 01:14:36;;;;;;;30.92;13.95;;;;;;;;;;4995473;28;20080;-46
2023/12/06 01:17:32;;;;;;;29.02;13.18;;;;;;;;;;4991367;28;20054;-45
2023/12/06 01:20:23;;;;;;;33.80;13.90;;;;;;;;;;4994050;28;20060;-60
2023/12/06 01:23:17;;;;;;;37.15;14.77;;;;;;;;;;4991028;28;20054;-49
2023/12/06 01:26:11;;;;;;;30.88;13.65;;;;;;;;;;4992933;28;20547;-47
2023/12/06 01:28:59;;;;;;;30.55;13.85;;;;;;;;;;4994770;28;20058;-50
2023/12/06 01:31:52;;;;;;;27.85;12.50;;;;;;;;;;4997662;28;20081;-49
2023/12/06 01:34:46;;;;;;;33.10;13.63;;;;;;;;;;4996798;28;20560;-46
2023/12/06 01:37:40;;;;;;;30.60;13.45;;;;;;;;;;4995215;28;20053;-58
2023/12/06 01:40:27;;;;;;;27.10;12.88;;;;;;;;;;4995706;28;20069;-61
2023/12/06 01:43:21;;;;;;;32.22;12.88;;;;;;;;;;4992183;28;20050;-60
2023/12/06 01:46:08;;;;;;;32.05;13.60;;;;;;;;;;4994350;28;20061;-61
2023/12/06 01:49:02;;;;;;;31.73;13.32;;;;;;;;;;4993079;28;20540;-61
2023/12/06 01:51:50;;;;;;;27.65;13.00;;;;;;;;;;4993135;28;20053;-61
2023/12/06 01:54:43;;;;;;;28.30;13.25;;;;;;;;;;4995047;28;20061;-65
2023/12/06 01:57:37;;;;;;;26.38;12.45;;;;;;;;;;4995555;28;20169;-55
2023/12/06 02:00:31;;;;;;;31.48;13.05;;;;;;;;;;4999610;28;20062;-59
2023/12/06 02:03:19;;;;;;;38.03;13.95;;;;;;;;;;4994655;28;20062;-58
2023/12/06 02:06:12;;;;;;;28.33;12.98;;;;;;;;;;4991647;28;20060;-59
2023/12/06 02:08:59;;;;;;;28.45;13.57;;;;;;;;;;4994250;28;20394;-59
2023/12/06 02:11:53;;;;;;;32.40;13.63;;;;;;;;;;4993478;28;20133;-60
2023/12/06 02:14:41;;;;;;;28.83;13.05;;;;;;;;;;4994557;28;20058;-65
2023/12/06 02:17:41;;;;;;;28.52;13.70;;;;;;;;;;4992460;28;20490;-50
2023/12/06 02:20:35;;;;;;;29.23;13.18;;;;;;;;;;4988019;28;20084;-49
2023/12/06 02:23:37;;;;;;;27.92;13.07;;;;;;;;;;4990608;28;20073;-52
2023/12/06 02:26:24;;;;;;;30.35;13.35;;;;;;;;;;4992277;28;20065;-51
2023/12/06 02:29:18;;;;;;;29.67;13.90;;;;;;;;;;4992377;28;20104;-47
2023/12/06 02:32:05;;;;;;;30.15;13.63;;;;;;;;;;4989990;28;20057;-59
2023/12/06 02:35:00;;;;;;;31.60;13.60;;;;;;;;;;4995235;28;20117;-59
2023/12/06 02:37:49;;;;;;;35.47;14.25;;;;;;;;;;4992745;28;20053;-61
2023/12/06 02:40:44;;;;;;;29.52;13.55;;;;;;;;;;4992954;28;20198;-60
2023/12/06 02:43:31;;;;;;;31.00;13.10;;;;;;;;;;4991387;28;20058;-59
2023/12/06 02:46:25;;;;;;;33.85;15.02;;;;;;;;;;4992225;28;20046;-59
2023/12/06 02:49:12;;;;;;;33.65;13.93;;;;;;;;;;4989792;28;20112;-59
2023/12/06 02:52:06;;;;;;;41.58;16.20;;;;;;;;;;4992348;28;20165;-66
2023/12/06 02:54:53;;;;;;;33.90;14.30;;;;;;;;;;4992343;28;20112;-49
2023/12/06 02:57:47;;;;;;;36.58;15.93;;;;;;;;;;4993815;28;20049;-48
2023/12/06 03:00:34;;;;;;;33.67;14.13;;;;;;;;;;4993495;28;20929;-50
2023/12/06 03:03:28;;;;;;;41.08;15.13;;;;;;;;;;4990798;28;20585;-48
2023/12/06 03:06:22;;;;;;;31.80;14.27;;;;;;;;;;4992942;28;20065;-48
2023/12/06 03:09:09;;;;;;;32.78;13.88;;;;;;;;;;4993685;28;20521;-59
2023/12/06 03:12:03;;;;;;;34.08;15.15;;;;;;;;;;4990636;28;20060;-51
2023/12/06 03:14:51;;;;;;;29.05;11.93;;;;;;;;;;4992845;28;20046;-52
2023/12/06 03:17:52;;;;;;;36.85;14.93;;;;;;;;;;4988981;28;20054;-47
2023/12/06 03:20:39;;;;;;;37.65;15.90;;;;;;;;;;4989203;28;21125;-47
2023/12/06 03:23:33;;;;;;;35.67;15.50;;;;;;;;;;4989285;28;20088;-47
2023/12/06 03:26:20;;;;;;;36.10;14.63;;;;;;;;;;4988882;28;20054;-59
2023/12/06 03:29:14;;;;;;;33.92;14.65;;;;;;;;;;4994756;28;20053;-65
2023/12/06 03:32:01;;;;;;;35.42;15.23;;;;;;;;;;4992042;28;20064;-59
2023/12/06 03:34:55;;;;;;;35.90;14.98;;;;;;;;;;4991692;28;20057;-59
2023/12/06 03:37:42;;;;;;;37.85;15.43;;;;;;;;;;4992962;28;20568;-59
2023/12/06 03:40:36;;;;;;;34.08;15.20;;;;;;;;;;4991213;28;20088;-60
2023/12/06 03:43:23;;;;;;;34.33;15.90;;;;;;;;;;4990131;28;20058;-60
2023/12/06 03:46:29;;;;;;;35.45;14.25;;;;;;;;;;4990740;28;20062;-50
2023/12/06 03:49:16;;;;;;;37.80;15.32;;;;;;;;;;4990485;28;20089;-47
2023/12/06 03:52:10;;;;;;;34.17;14.88;;;;;;;;;;4991591;28;20136;-46
2023/12/06 03:54:57;;;;;;;33.38;14.70;;;;;;;;;;4987056;28;20184;-49
2023/12/06 03:57:51;;;;;;;38.55;15.10;;;;;;;;;;4992035;28;20049;-49
2023/12/06 04:00:45;;;;;;;37.60;15.00;;;;;;;;;;4993972;28;20053;-47
2023/12/06 04:03:41;;;;;;;40.47;15.55;;;;;;;;;;4993498;28;20510;-59
2023/12/06 04:06:34;;;;;;;42.47;15.55;;;;;;;;;;4994230;28;20077;-61
2023/12/06 04:09:28;;;;;;;36.05;14.02;;;;;;;;;;4996431;28;20057;-61
2023/12/06 04:12:15;;;;;;;33.28;14.57;;;;;;;;;;4995135;28;20656;-60
2023/12/06 04:15:11;;;;;;;40.35;15.88;;;;;;;;;;4996086;28;20054;-62
2023/12/06 04:18:04;;;;;;;31.92;14.63;;;;;;;;;;4994115;28;20136;-61
2023/12/06 04:20:57;;;;;;;33.83;14.23;;;;;;;;;;4993866;28;20065;-61
2023/12/06 04:23:44;;;;;;;40.70;15.07;;;;;;;;;;4994336;28;20825;-66
2023/12/06 04:26:45;;;;;;;33.67;14.50;;;;;;;;;;4995318;28;20058;-55
2023/12/06 04:29:32;;;;;;;36.63;14.48;;;;;;;;;;4997168;28;20411;-58
2023/12/06 04:32:33;;;;;;;34.13;14.07;;;;;;;;;;4994587;28;20058;-58
2023/12/06 04:35:20;;;;;;;33.97;14.50;;;;;;;;;;4997177;28;20062;-58
2023/12/06 04:38:14;;;;;;;35.53;14.68;;;;;;;;;;4995045;28;20112;-58
2023/12/06 04:41:01;;;;;;;38.25;15.63;;;;;;;;;;4993374;28;20058;-65
2023/12/06 04:43:55;;;;;;;29.95;13.00;;;;;;;;;;4994630;28;20061;-65
2023/12/06 04:46:44;;;;;;;31.15;13.23;;;;;;;;;;4996699;28;20050;-65
2023/12/06 04:49:37;;;;;;;35.10;14.00;;;;;;;;;;4994145;28;20860;-65
2023/12/06 04:52:24;;;;;;;34.08;13.95;;;;;;;;;;4994696;28;20054;-66
2023/12/06 04:55:18;;;;;;;33.47;13.70;;;;;;;;;;4991583;28;20058;-66
2023/12/06 04:58:06;;;;;;;34.75;14.70;;;;;;;;;;4995893;28;20414;-65
2023/12/06 05:00:59;;;;;;;34.15;14.57;;;;;;;;;;4983232;28;20916;-51
2023/12/06 05:03:47;;;;;;;33.40;13.05;;;;;;;;;;4996369;28;20058;-58
2023/12/06 05:06:40;;;;;;;29.35;13.30;;;;;;;;;;4998111;28;20179;-54
2023/12/06 05:09:35;;;;;;;34.10;13.43;;;;;;;;;;4997824;28;20066;-57
2023/12/06 05:12:21;;;;;;;28.30;12.85;;;;;;;;;;4995067;28;20517;-56
2023/12/06 05:15:15;;;;;;;23.27;10.63;;;;;;;;;;4997319;28;20683;-58
2023/12/06 05:18:09;;;;;;;27.73;12.85;;;;;;;;;;4992950;28;20990;-57
2023/12/06 05:21:10;;;;;;;28.88;12.63;;;;;;;;;;4994899;28;20100;-66
2023/12/06 05:24:03;;;;;;;27.85;11.98;;;;;;;;;;4995264;28;20567;-66
2023/12/06 05:26:50;;;;;;;29.90;12.70;;;;;;;;;;4991800;28;20077;-66
2023/12/06 05:29:44;;;;;;;26.88;12.40;;;;;;;;;;4988375;28;20128;-66
2023/12/06 05:32:32;;;;;;;26.33;12.00;;;;;;;;;;4989210;28;20095;-64
2023/12/06 05:35:32;;;;;;;25.10;11.13;;;;;;;;;;4993963;28;20050;-66
2023/12/06 05:38:19;;;;;;;26.67;11.55;;;;;;;;;;4993445;28;20049;-55
2023/12/06 05:41:14;;;;;;;24.70;11.13;;;;;;;;;;4995087;28;20045;-49
2023/12/06 05:44:01;;;;;;;25.38;9.98;;;;;;;;;;4987512;28;20062;-48
2023/12/06 05:46:55;;;;;;;25.65;11.73;;;;;;;;;;4992926;28;20065;-48
2023/12/06 05:49:43;;;;;;;26.30;11.95;;;;;;;;;;4998528;28;20473;-46
2023/12/06 05:52:36;;;;;;;25.08;9.93;;;;;;;;;;4995618;28;20295;-46
2023/12/06 05:55:23;;;;;;;30.90;12.98;;;;;;;;;;4992805;28;20073;-65
2023/12/06 05:58:17;;;;;;;25.45;11.68;;;;;;;;;;4991303;28;20065;-58
2023/12/06 06:01:04;;;;;;;23.73;10.82;;;;;;;;;;4995957;28;20875;-55
2023/12/06 06:03:58;;;;;;;23.92;10.85;;;;;;;;;;4999503;28;20046;-57
2023/12/06 06:06:45;;;;;;;28.65;12.35;;;;;;;;;;4999075;28;20120;-56
2023/12/06 06:09:39;;;;;;;24.52;10.90;;;;;;;;;;4997867;28;20064;-57
2023/12/06 06:12:31;;;;;;;25.15;10.30;;;;;;;;;;4994050;28;20053;-48
2023/12/06 06:15:25;;;;;;;28.90;11.70;;;;;;;;;;4995849;28;20588;-54
2023/12/06 06:18:19;;;;;;;24.30;9.98;;;;;;;;;;4995870;28;20609;-54
2023/12/06 06:21:19;;;;;;;25.08;11.60;;;;;;;;;;4993538;28;20060;-54
2023/12/06 06:24:06;;;;;;;24.40;10.70;;;;;;;;;;4994700;28;20048;-56
2023/12/06 06:27:02;;;;;;;25.23;11.18;;;;;;;;;;4995931;28;20408;-58
2023/12/06 06:29:54;;;;;;;26.13;11.80;;;;;;;;;;4994699;28;20058;-56
2023/12/06 06:32:41;;;;;;;24.92;11.13;;;;;;;;;;4996402;28;20054;-47
2023/12/06 06:35:35;;;;;;;21.42;9.15;;;;;;;;;;4998237;28;20055;-60
2023/12/06 06:38:23;;;;;;;27.42;11.05;;;;;;;;;;4996963;28;20109;-59
2023/12/06 06:41:16;;;;;;;24.42;10.90;;;;;;;;;;4998727;28;20050;-59
2023/12/06 06:44:10;;;;;;;23.92;11.27;;;;;;;;;;4994989;28;20053;-59
2023/12/06 06:46:57;;;;;;;25.35;11.07;;;;;;;;;;4995899;28;20185;-58
2023/12/06 06:49:52;;;;;;;21.17;10.00;;;;;;;;;;4996032;28;20100;-47
2023/12/06 06:52:39;;;;;;;27.83;11.73;;;;;;;;;;4996253;28;20064;-59
2023/12/06 06:55:33;;;;;;;24.70;11.30;;;;;;;;;;4995810;28;20588;-59
2023/12/06 06:58:20;;;;;;;27.33;11.35;;;;;;;;;;4998665;28;20157;-59
2023/12/06 07:01:14;;;;;;;25.33;11.02;;;;;;;;;;4996675;28;20050;-59
2023/12/06 07:04:01;;;;;;;25.80;11.10;;;;;;;;;;4997166;28;20529;-59
2023/12/06 07:06:55;;;;;;;24.40;10.52;;;;;;;;;;4994458;28;20046;-49
2023/12/06 07:09:49;;;;;;;23.75;10.23;;;;;;;;;;4996412;28;20077;-65
2023/12/06 07:12:43;;;;;;;25.80;10.40;;;;;;;;;;4993955;28;20057;-51
2023/12/06 07:15:31;;;;;;;23.30;10.48;;;;;;;;;;4996172;28;20427;-47
2023/12/06 07:18:32;;;;;;;23.20;10.10;;;;;;;;;;4995215;28;20054;-46
2023/12/06 07:21:18;;;;;;;25.48;10.50;;;;;;;;;;4996130;28;20464;-49
2023/12/06 07:24:12;;;;;;;22.90;9.60;;;;;;;;;;4994321;28;20057;-50
2023/12/06 07:27:00;;;;;;;23.42;9.60;;;;;;;;;;4993682;28;20120;-55
2023/12/06 07:29:53;;;;;;;20.65;9.88;;;;;;;;;;4992825;28;20054;-65
2023/12/06 07:32:41;;;;;;;21.73;8.95;;;;;;;;;;4995679;28;20050;-63
2023/12/06 07:35:35;;;;;;;20.27;9.63;;;;;;;;;;4999235;28;20124;-65
2023/12/06 07:38:25;;;;;;;22.80;10.25;;;;;;;;;;4993554;28;20099;-63
2023/12/06 07:41:16;;;;;;;19.08;9.38;;;;;;;;;;4993135;28;20058;-64
2023/12/06 07:44:10;;;;;;;23.13;10.00;;;;;;;;;;4993214;28;20449;-56
2023/12/06 07:47:04;;;;;;;21.90;10.07;;;;;;;;;;4994298;28;20064;-61
2023/12/06 07:49:54;;;;;;;23.23;10.20;;;;;;;;;;4990498;28;20057;-60
2023/12/06 07:52:50;;;;;;;18.67;9.23;;;;;;;;;;4994015;28;20049;-60
2023/12/06 07:55:35;;;;;;;22.08;10.30;;;;;;;;;;4993613;28;20061;-61
2023/12/06 07:58:30;;;;;;;21.83;10.27;;;;;;;;;;4997090;28;20054;-61
2023/12/06 08:01:16;;;;;;;24.77;10.73;;;;;;;;;;4994470;28;20421;-60
2023/12/06 08:04:10;;;;;;;22.95;10.30;;;;;;;;;;4996043;28;20050;-61
2023/12/06 08:06:57;;;;;;;25.55;10.32;;;;;;;;;;4995270;28;20065;-51
2023/12/06 08:09:52;;;;;;;24.05;10.38;;;;;;;;;;4995671;28;20042;-45
2023/12/06 08:12:46;;;;;;;28.23;11.07;;;;;;;;;;4992693;28;20728;-45
2023/12/06 08:15:41;;;;;;;23.83;10.23;;;;;;;;;;4997683;28;20054;-45
2023/12/06 08:18:34;;;;;;;22.48;9.60;;;;;;;;;;4995218;28;20058;-45
2023/12/06 08:21:28;;;;;;;26.85;11.07;;;;;;;;;;4995817;28;20607;-58
2023/12/06 08:24:16;;;;;;;23.38;10.10;;;;;;;;;;4994141;28;20065;-59
2023/12/06 08:27:10;;;;;;;21.90;10.25;;;;;;;;;;4994706;28;20054;-58
2023/12/06 08:29:57;;;;;;;21.52;9.75;;;;;;;;;;4994992;28;20077;-59
2023/12/06 08:32:50;;;;;;;24.40;10.48;;;;;;;;;;4994948;28;20057;-59
2023/12/06 08:35:38;;;;;;;15.17;7.23;;;;;;;;;;4993972;28;20137;-60
2023/12/06 08:38:31;;;;;;;20.02;10.23;;;;;;;;;;4995956;28;20049;-59
2023/12/06 08:41:19;;;;;;;21.73;10.10;;;;;;;;;;4994125;28;21477;-59
2023/12/06 08:44:12;;;;;;;17.90;8.73;;;;;;;;;;4994607;28;20050;-50
2023/12/06 08:46:59;;;;;;;19.90;9.20;;;;;;;;;;4995471;28;20128;-46
2023/12/06 08:49:53;;;;;;;20.17;9.05;;;;;;;;;;4995952;28;20259;-48
2023/12/06 08:52:42;;;;;;;19.55;9.57;;;;;;;;;;4999693;28;20468;-51
2023/12/06 08:55:35;;;;;;;19.38;9.68;;;;;;;;;;5000554;28;20757;-49
2023/12/06 08:58:22;;;;;;;16.42;8.38;;;;;;;;;;5001484;28;20054;-46
2023/12/06 09:01:16;;;;;;;20.20;9.10;;;;;;;;;;5000732;28;20046;-60
2023/12/06 09:04:03;;;;;;;13.70;7.95;;;;;;;;;;4996936;28;20600;-60
2023/12/06 09:06:57;;;;;;;17.38;8.98;;;;;;;;;;4998366;28;20089;-60
2023/12/06 09:09:47;;;;;;;17.63;7.65;;;;;;;;;;4999848;28;21086;-60
2023/12/06 09:12:42;;;;;;;14.45;7.43;;;;;;;;;;4998076;28;20133;-61
2023/12/06 09:15:28;;;;;;;14.32;7.50;;;;;;;;;;4999292;28;20065;-61
2023/12/06 09:18:29;;;;;;;15.50;8.30;;;;;;;;;;4995588;28;20049;-46
2023/12/06 09:21:16;;;;;;;15.27;7.40;;;;;;;;;;4999917;28;20403;-56
2023/12/06 09:24:10;;;;;;;14.23;7.72;;;;;;;;;;4999590;28;20116;-58
2023/12/06 09:26:57;;;;;;;16.38;7.65;;;;;;;;;;4997488;28;20532;-55
2023/12/06 09:29:51;;;;;;;14.68;7.40;;;;;;;;;;4998285;28;20050;-57
2023/12/06 09:32:39;;;;;;;14.05;7.10;;;;;;;;;;4995919;28;20058;-57
2023/12/06 09:35:32;;;;;;;17.58;7.35;;;;;;;;;;4997902;28;20060;-57
2023/12/06 09:38:19;;;;;;;15.65;8.13;;;;;;;;;;4999968;28;20548;-59
2023/12/06 09:41:13;;;;;;;13.45;7.55;;;;;;;;;;4998540;28;20112;-59
2023/12/06 09:44:01;;;;;;;14.65;7.70;;;;;;;;;;4997176;28;20054;-58
2023/12/06 09:46:56;;;;;;;12.40;7.68;;;;;;;;;;5001266;28;20151;-59
2023/12/06 09:49:49;;;;;;;12.07;6.57;;;;;;;;;;4999828;28;20058;-60
2023/12/06 09:52:43;;;;;;;12.52;6.90;;;;;;;;;;4996703;28;20054;-49
2023/12/06 09:55:35;;;;;;;15.15;6.82;;;;;;;;;;4997333;28;20062;-55
2023/12/06 09:58:28;;;;;;;14.88;7.03;;;;;;;;;;5000177;28;20054;-59
2023/12/06 10:01:15;;;;;;;13.35;6.75;;;;;;;;;;4996003;28;20250;-59
2023/12/06 10:04:10;;;;;;;14.73;7.05;;;;;;;;;;4994486;28;20120;-59
2023/12/06 10:07:11;;;;;;;15.00;7.40;;;;;;;;;;4996927;28;20050;-59
2023/12/06 10:10:16;;;;;;;14.73;8.00;;;;;;;;;;4995006;28;20045;-59
2023/12/06 10:13:03;;;;;;;14.60;6.45;;;;;;;;;;4997216;28;20509;-60
2023/12/06 10:15:56;;;;;;;11.52;6.40;;;;;;;;;;4996397;28;20050;-59
2023/12/06 10:18:47;;;;;;;12.40;7.03;;;;;;;;;;4994151;28;20601;-58
2023/12/06 10:21:39;;;;;;;11.20;6.25;;;;;;;;;;4994519;28;20166;-59
2023/12/06 10:24:28;;;;;;;12.98;6.18;;;;;;;;;;4996319;28;20054;-59
2023/12/06 10:27:24;;;;;;;13.40;6.57;;;;;;;;;;4995327;28;20240;-59
2023/12/06 10:30:11;;;;;;;12.23;6.25;;;;;;;;;;4996806;28;20054;-59
2023/12/06 10:33:06;;;;;;;11.27;5.63;;;;;;;;;;4994867;28;20064;-58
2023/12/06 10:35:54;;;;;;;9.45;5.45;;;;;;;;;;4993058;28;20513;-59
2023/12/06 10:38:49;;;;;;;11.43;5.25;;;;;;;;;;4996227;28;20109;-59
2023/12/06 10:41:38;;;;;;;10.70;5.05;;;;;;;;;;4993624;28;20127;-59
2023/12/06 10:44:31;;;;;;;10.45;5.50;;;;;;;;;;4995877;28;20525;-59
2023/12/06 10:47:19;;;;;;;9.30;5.05;;;;;;;;;;4995900;28;20119;-57
2023/12/06 10:50:14;;;;;;;10.25;5.50;;;;;;;;;;4998172;28;20054;-47
2023/12/06 10:53:02;;;;;;;11.50;5.35;;;;;;;;;;4994610;28;20552;-60
2023/12/06 10:55:57;;;;;;;9.98;5.50;;;;;;;;;;4999035;28;20945;-60
2023/12/06 10:58:52;;;;;;;9.15;5.00;;;;;;;;;;4997932;28;20061;-60
2023/12/06 11:01:45;;;;;;;8.32;4.78;;;;;;;;;;4998573;28;20476;-60
2023/12/06 11:04:43;;;;;;;6.88;4.50;;;;;;;;;;4997940;28;20056;-60
2023/12/06 11:07:49;;;;;;;7.05;4.80;;;;;;;;;;4996774;28;20054;-57
2023/12/06 11:10:57;;;;;;;6.85;4.25;;;;;;;;;;4996698;28;20054;-60
2023/12/06 11:13:53;;;;;;;7.22;4.57;;;;;;;;;;4996831;28;20057;-60
2023/12/06 11:17:06;;;;;;;8.18;4.90;;;;;;;;;;4998139;28;20054;-61
2023/12/06 11:19:58;;;;;;;9.80;4.68;;;;;;;;;;4995514;28;20058;-61
2023/12/06 11:22:52;;;;;;;6.43;4.30;;;;;;;;;;4996766;28;20068;-61
2023/12/06 11:25:43;;;;;;;9.40;4.70;;;;;;;;;;4995205;28;20053;-64
2023/12/06 11:28:39;;;;;;;8.25;3.88;;;;;;;;;;4993179;28;20601;-60
2023/12/06 11:31:33;;;;;;;5.00;3.60;;;;;;;;;;4992741;28;20050;-59
2023/12/06 11:34:36;;;;;;;6.93;3.95;;;;;;;;;;4992797;28;20108;-60
2023/12/06 11:37:25;;;;;;;;;;;;;;;;;;4996831;28;20520;-62
2023/12/06 11:40:21;;;;;;;7.65;4.03;;;;;;;;;;4995718;28;19928;-59
2023/12/06 11:43:08;;;;;;;7.13;3.58;;;;;;;;;;4993607;28;20050;-55
2023/12/06 11:46:07;;;;;;;8.30;4.47;;;;;;;;;;4996934;28;20057;-61
2023/12/06 11:48:54;;;;;;;6.97;4.05;;;;;;;;;;4995750;28;20136;-61
2023/12/06 11:51:59;;;;;;;8.18;4.35;;;;;;;;;;4996071;28;20053;-62
2023/12/06 11:54:45;;;;;;;8.38;4.55;;;;;;;;;;4996422;28;20501;-61
2023/12/06 11:57:58;;;;;;;9.27;5.13;;;;;;;;;;4998093;28;20049;-61
2023/12/06 12:00:46;;;;;;;7.05;4.15;;;;;;;;;;4995739;28;20112;-63
2023/12/06 12:03:40;;;;;;;8.95;5.57;;;;;;;;;;4993800;28;20054;-59
2023/12/06 12:06:29;;;;;;;9.13;5.32;;;;;;;;;;4994865;28;20145;-55
2023/12/06 12:09:24;;;;;;;9.13;5.15;;;;;;;;;;4995678;28;20046;-56
2023/12/06 12:12:11;;;;;;;7.88;4.18;;;;;;;;;;4995568;28;20063;-56
2023/12/06 12:15:05;;;;;;;13.05;5.38;;;;;;;;;;4995521;28;20465;-56
2023/12/06 12:17:59;;;;;;;7.97;4.70;;;;;;;;;;4989885;28;20046;-57
2023/12/06 12:20:59;;;;;;;9.52;4.60;;;;;;;;;;4993234;28;20046;-46
2023/12/06 12:23:47;;;;;;;8.00;4.78;;;;;;;;;;4994798;28;20160;-56
2023/12/06 12:26:42;;;;;;;7.20;4.45;;;;;;;;;;4995120;28;20050;-54
2023/12/06 12:29:27;;;;;;;7.95;4.93;;;;;;;;;;4998741;28;20069;-58
2023/12/06 12:32:21;;;;;;;7.75;4.68;;;;;;;;;;4997008;28;20115;-55
2023/12/06 12:35:09;;;;;;;10.15;5.25;;;;;;;;;;4999382;28;20085;-57
2023/12/06 12:38:02;;;;;;;8.80;5.13;;;;;;;;;;4998466;28;20050;-50
2023/12/06 12:40:50;;;;;;;10.52;5.45;;;;;;;;;;4998777;28;20046;-59
2023/12/06 12:43:44;;;;;;;7.18;4.95;;;;;;;;;;4998409;28;20112;-61
2023/12/06 12:46:33;;;;;;;8.32;4.93;;;;;;;;;;4997671;28;20058;-61
2023/12/06 12:49:31;;;;;;;7.85;5.22;;;;;;;;;;4997505;28;20089;-62
2023/12/06 12:52:19;;;;;;;9.38;5.13;;;;;;;;;;4997795;28;20054;-62
2023/12/06 12:55:12;;;;;;;8.95;5.57;;;;;;;;;;4996466;28;20120;-61
2023/12/06 12:58:08;;;;;;;9.18;5.40;;;;;;;;;;4998371;28;20052;-47
2023/12/06 13:01:03;;;;;;;9.05;4.97;;;;;;;;;;4994417;28;20502;-59
2023/12/06 13:03:55;;;;;;;10.27;5.93;;;;;;;;;;4995200;28;20804;-58
2023/12/06 13:06:43;;;;;;;9.00;5.45;;;;;;;;;;4998518;28;20142;-59
2023/12/06 13:09:36;;;;;;;10.20;5.45;;;;;;;;;;4998030;28;20053;-59
2023/12/06 13:12:24;;;;;;;8.65;5.43;;;;;;;;;;4999420;28;20088;-59
2023/12/06 13:15:17;;;;;;;9.70;5.35;;;;;;;;;;4997885;28;20440;-61
2023/12/06 13:18:11;;;;;;;10.20;5.90;;;;;;;;;;4996223;28;20109;-61
2023/12/06 13:21:11;;;;;;;9.77;5.55;;;;;;;;;;4999444;28;20127;-61
2023/12/06 13:23:58;;;;;;;15.07;6.22;;;;;;;;;;4996863;28;20054;-61
2023/12/06 13:26:53;;;;;;;10.73;6.00;;;;;;;;;;4996798;28;20085;-61
2023/12/06 13:29:40;;;;;;;11.55;6.38;;;;;;;;;;4996445;28;20383;-61
2023/12/06 13:32:34;;;;;;;11.32;6.38;;;;;;;;;;5000590;28;20057;-61
2023/12/06 13:35:22;;;;;;;12.50;6.63;;;;;;;;;;4998814;28;20549;-58
2023/12/06 13:38:15;;;;;;;12.05;6.97;;;;;;;;;;4998588;28;20053;-59
2023/12/06 13:41:02;;;;;;;10.80;6.32;;;;;;;;;;4994926;28;20482;-59
2023/12/06 13:43:56;;;;;;;11.85;6.80;;;;;;;;;;4995965;28;20057;-59
2023/12/06 13:46:43;;;;;;;10.82;6.13;;;;;;;;;;4999105;28;20050;-59
2023/12/06 13:49:37;;;;;;;11.07;6.57;;;;;;;;;;4995583;28;20179;-59
2023/12/06 13:52:25;;;;;;;10.00;6.13;;;;;;;;;;4995915;28;20141;-59
2023/12/06 13:55:21;;;;;;;11.80;6.72;;;;;;;;;;4997152;28;20167;-54
2023/12/06 13:58:08;;;;;;;12.55;6.75;;;;;;;;;;4997508;28;20116;-57
2023/12/06 14:01:03;;;;;;;11.73;6.80;;;;;;;;;;4999449;28;20053;-57
2023/12/06 14:03:55;;;;;;;10.57;6.00;;;;;;;;;;4996878;28;20113;-58
2023/12/06 14:06:43;;;;;;;13.43;6.20;;;;;;;;;;4995618;28;20042;-57
2023/12/06 14:09:30;;;;;;;11.95;6.22;;;;;;;;;;4995795;28;20049;-59
2023/12/06 14:12:24;;;;;;;10.13;6.25;;;;;;;;;;4997486;28;20145;-59
2023/12/06 14:15:12;;;;;;;11.75;6.35;;;;;;;;;;4997261;28;20054;-53
2023/12/06 14:18:18;;;;;;;11.57;6.75;;;;;;;;;;4993054;28;20556;-53
2023/12/06 14:21:12;;;;;;;14.07;6.43;;;;;;;;;;4994733;28;20476;-53
2023/12/06 14:24:07;;;;;;;11.43;6.55;;;;;;;;;;4995719;28;20075;-47
2023/12/06 14:27:00;;;;;;;12.93;6.57;;;;;;;;;;4993875;28;20460;-48
2023/12/06 14:29:48;;;;;;;12.95;6.88;;;;;;;;;;4993961;28;20225;-62
2023/12/06 14:32:41;;;;;;;13.65;7.20;;;;;;;;;;4999901;28;20085;-58
2023/12/06 14:35:29;;;;;;;14.13;7.18;;;;;;;;;;4997909;28;20741;-60
2023/12/06 14:38:22;;;;;;;15.07;7.53;;;;;;;;;;4995964;28;20461;-59
2023/12/06 14:41:20;;;;;;;18.42;6.90;;;;;;;;;;4998947;28;20053;-59
2023/12/06 14:44:07;;;;;;;12.70;6.82;;;;;;;;;;4995963;28;20805;-58
2023/12/06 14:47:01;;;;;;;12.50;6.82;;;;;;;;;;4994239;28;20065;-58
2023/12/06 14:49:49;;;;;;;15.70;7.80;;;;;;;;;;4991820;28;20513;-48
2023/12/06 14:52:43;;;;;;;13.05;6.80;;;;;;;;;;4993415;28;20065;-48
2023/12/06 14:55:30;;;;;;;13.68;7.35;;;;;;;;;;4996008;28;20068;-46
2023/12/06 14:58:23;;;;;;;13.00;6.75;;;;;;;;;;4993611;28;20046;-47
2023/12/06 15:01:17;;;;;;;14.35;6.55;;;;;;;;;;4996062;28;20072;-49
2023/12/06 15:04:04;;;;;;;15.13;6.93;;;;;;;;;;4998039;28;20081;-46
2023/12/06 15:06:58;;;;;;;13.65;7.03;;;;;;;;;;4998787;28;20058;-58
2023/12/06 15:10:00;;;;;;;16.40;7.72;;;;;;;;;;4995066;28;20564;-65
2023/12/06 15:12:54;;;;;;;13.73;7.45;;;;;;;;;;4996392;28;20141;-65
2023/12/06 15:15:42;;;;;;;15.77;8.07;;;;;;;;;;4996553;28;20681;-64
2023/12/06 15:18:42;;;;;;;18.23;9.38;;;;;;;;;;4995027;28;20060;-65
2023/12/06 15:21:36;;;;;;;16.45;7.90;;;;;;;;;;4993604;28;20066;-65
2023/12/06 15:24:29;;;;;;;15.10;8.00;;;;;;;;;;4994601;28;20113;-48
2023/12/06 15:27:16;;;;;;;14.93;7.35;;;;;;;;;;4996202;28;20061;-47
2023/12/06 15:30:10;;;;;;;15.68;7.80;;;;;;;;;;4994619;28;20580;-47
2023/12/06 15:33:04;;;;;;;12.90;7.65;;;;;;;;;;4993832;28;20057;-51
2023/12/06 15:35:51;;;;;;;15.93;7.90;;;;;;;;;;4996271;28;20062;-50
2023/12/06 15:38:46;;;;;;;12.38;7.18;;;;;;;;;;4993927;28;20049;-48
2023/12/06 15:41:32;;;;;;;14.25;7.38;;;;;;;;;;4994867;28;20061;-48
2023/12/06 15:44:30;;;;;;;15.85;8.25;;;;;;;;;;4995197;28;20054;-60
2023/12/06 15:47:14;;;;;;;11.33;6.03;;;;;;;;;;4993779;28;20974;-47
2023/12/06 15:50:09;;;;;;;16.27;8.05;;;;;;;;;;4993687;28;20304;-47
2023/12/06 15:52:56;;;;;;;17.48;7.72;;;;;;;;;;4988335;28;20569;-48
2023/12/06 15:55:49;;;;;;;15.07;8.00;;;;;;;;;;4990239;28;20151;-49
2023/12/06 15:58:36;;;;;;;15.63;7.90;;;;;;;;;;4984863;28;20054;-48
2023/12/06 16:01:30;;;;;;;17.25;9.00;;;;;;;;;;4992978;28;20054;-59
2023/12/06 16:04:17;;;;;;;16.08;8.93;;;;;;;;;;4993826;28;20525;-64
2023/12/06 16:07:11;;;;;;;17.08;8.57;;;;;;;;;;4990521;28;20541;-65
2023/12/06 16:09:58;;;;;;;16.75;8.32;;;;;;;;;;4995818;28;20104;-65
2023/12/06 16:13:03;;;;;;;19.48;9.65;;;;;;;;;;4996632;28;20127;-64
2023/12/06 16:16:03;;;;;;;18.15;9.93;;;;;;;;;;4994267;28;20108;-64
2023/12/06 16:19:04;;;;;;;16.42;8.45;;;;;;;;;;4994100;28;20058;-46
2023/12/06 16:21:57;;;;;;;16.55;8.63;;;;;;;;;;4988230;28;20287;-61
2023/12/06 16:24:45;;;;;;;18.10;8.65;;;;;;;;;;4993820;28;20766;-61
2023/12/06 16:27:38;;;;;;;19.65;10.35;;;;;;;;;;4988692;28;20513;-62
2023/12/06 16:30:25;;;;;;;18.75;8.90;;;;;;;;;;4984141;28;20377;-62
2023/12/06 16:33:19;;;;;;;17.52;9.02;;;;;;;;;;4984557;28;20517;-62
2023/12/06 16:36:07;;;;;;;18.85;9.13;;;;;;;;;;4988700;28;20477;-62
2023/12/06 16:39:00;;;;;;;18.33;9.02;;;;;;;;;;4990888;28;20065;-47
2023/12/06 16:41:47;;;;;;;19.15;10.02;;;;;;;;;;4992735;28;20057;-49
2023/12/06 16:44:48;;;;;;;18.48;9.75;;;;;;;;;;4989932;28;20065;-49
2023/12/06 16:47:35;;;;;;;18.95;9.73;;;;;;;;;;4985445;28;20058;-47
2023/12/06 16:50:28;;;;;;;20.58;10.02;;;;;;;;;;4988785;28;20058;-47
2023/12/06 16:53:16;;;;;;;16.98;8.70;;;;;;;;;;4990303;28;20857;-46
2023/12/06 16:56:09;;;;;;;18.63;8.98;;;;;;;;;;4991749;28;20058;-56
2023/12/06 16:58:56;;;;;;;16.30;9.02;;;;;;;;;;4992134;28;22197;-58
2023/12/06 17:01:50;;;;;;;17.70;8.85;;;;;;;;;;4989115;28;20077;-56
2023/12/06 17:04:37;;;;;;;17.98;9.32;;;;;;;;;;4993163;28;20057;-58
2023/12/06 17:07:31;;;;;;;17.25;8.65;;;;;;;;;;4992172;28;20085;-56